Saturday, November 01, 2014
06:18 UTC
  |  Log In   |  Register Free
Airport Search:

Hobart Regional Airport
(KHBR)

Hobart Regional Airport Diagram
No Airport Diagram Available

FAA data valid effective September 18, 2014 - November 13, 2014 (unless otherwise noted).

 
 
 
 
 
 
 
 
 
 
 
 
 
 

Current Aviation Weather for Hobart Regional Airport (KHBR)

The most recent METAR observation for KHBR was updated at: 0612
METAR Summary (Translated METAR)
KHBR
010553Z AUTO 08007KT 10SM CLR 02/M04 A3038 RMK AO2 SLP291 T00221039 10106 20022 401610022 58007 $
KCSM
010553Z 09005KT 10SM CLR 04/M04 A3039 RMK AO2 SLP293 T00391044 10094 20039 401500039 58007
(22.2 nm NW from KHBR)
KAXS
010555Z AUTO 08005KT 10SM CLR 05/M04 A3040 RMK AO2 T00521036 10127 20052 401720052
(22.5 nm SW from KHBR)
TAF Summary (Translated TAF)
KHBR
311720Z 3118/0118 03015G22KT P6SM SKC FM010000 10009KT P6SM SCT250 FM011000 16013KT P6SM SCT250
KCSM
(22.2 nm NW from KHBR)
311720Z 3118/0118 03015G22KT P6SM SKC FM010000 09007KT P6SM SCT250 FM011000 16014KT P6SM SCT250
  Airport Weather Conditions for KHBR

 Current Weather at HBR
36° F
Fair
East winds at 8.1 mph
HBR NOAA Radar

Pressure: 30.38 in
Humidity: 64%
Wind: East at 8.1 MPH (7 KT)
Dew Point: 25.0°F
Visibility: 10.00 mi


Airport Weather Forecast for KHBR

Translated METAR and TAF for KHBR
Translated METAR for KHBR (0613 UTC 01 November 2014)
found at http://aviationweather.gov/adds/metars/
 
METAR text: KHBR 010553Z AUTO 08007KT 10SM CLR 02/M04 A3038 RMK AO2 SLP291 T00221039 10106 20022 401610022 58007 $
Conditions at: KHBR (HOBART , OK, US) observed 0553 UTC 01 November 2014
Temperature: 2.2°C (36°F)
Dewpoint: -3.9°C (25°F) [RH = 64%]
Pressure (altimeter): 30.38 inches Hg (1028.9 mb)
[Sea-level pressure: 1029.1 mb]
Winds: from the E (80 degrees) at 8 MPH (7 knots; 3.6 m/s)
Visibility: 10 or more miles (16+ km)
Ceiling: at least 12,000 feet AGL
Clouds: sky clear below 12,000 feet AGL
Weather:
SOME DATA ABOVE MAY BE INACCURATE!!!
"$" is an indication the sensor requires maintenance
Translated TAF for KHBR
Forecast for: KHBR (HOBART , OK, US)
TAF Text: KHBR 010521Z 0106/0206 10009KT P6SM SCT250
Forecast period: 0600 to 1000 UTC 01 November 2014
Forecast type: FROM: standard forecast or significant change
Winds: from the E (100 degrees) at 10 MPH (9 knots; 4.7 m/s)
Visibility: 6 or more miles (10+ km)
Clouds: scattered clouds at 25000 feet AGL
Weather: no significant weather forecast for this period
TAF Text: FM011000 16013KT P6SM SCT250
Forecast period: 1000 to 1500 UTC 01 November 2014
Forecast type: FROM: standard forecast or significant change
Winds: from the SSE (160 degrees) at 15 MPH (13 knots; 6.8 m/s)
Visibility: 6 or more miles (10+ km)
Clouds: scattered clouds at 25000 feet AGL
Weather: no significant weather forecast for this period
TAF Text: FM011500 18015G22KT P6SM BKN250
Forecast period: 1500 UTC 01 November 2014 to 0600 UTC 02 November 2014
Forecast type: FROM: standard forecast or significant change
Winds: from the S (180 degrees) at 17 MPH (15 knots; 7.8 m/s)
gusting to 25 MPH (22 knots; 11.4 m/s)
Visibility: 6 or more miles (10+ km)
Ceiling: 25000 feet AGL
Clouds: broken clouds at 25000 feet AGL
Weather: no significant weather forecast for this period

Find All Airport Services Find A Hotel Find A Rental Car Find A Golf Course Find A Restaurant $100 Hamburger



FBO's on the Field
FBO Company Facility Photos Services Transportation Aviation Fuel Prices: Prices include tax
Catering Weather Repair Courtesy Rental Type 100LL JetA JetA+ MOGAS 8087
 
City of Hobart

Currently rated 2.8 by 1 person
FS:Phillips 66
Last Updated: Oct-14
Login to update fuel prices
SS:
Contact City of HobartMore FBO Information
 
Add another FBO Facility Photos Catering Weather Repair Courtesy Rental Type 100LL JetA JetA+ MOGAS 8087
Services Transportation Aviation Fuel Prices: Prices include tax


model-print
model-print
model-print
model-print